Terminal Aerodrome Forecast
Issued by NWS

Current Version | Previous Version | Text Only | Print | Product List | Glossary Off
Versions: 1 2 3 4 5 6 7 8 9 10 11 12 13 14 15 16 17 18 19

000
FTUS41 KPBZ 041738
TAFHLG
TAF
KHLG 041738Z 0418/0518 30008KT P6SM SCT050
     FM042300 VRB05KT P6SM SKC
     FM050800 VRB02KT 5SM BR FEW005
     FM051300 29008G15KT P6SM SCT040=

USA.gov is the U.S. government's official web portal to all federal, state and local government web resources and services.